sensor_id;sensor_type;location;lat;lon;timestamp;pressure;altitude;pressure_sealevel;temperature;humidity
44079;BME280;29744;49.078;12.878;2022-07-19T00:03:25;97076.03;;;19.31;42.50
44079;BME280;29744;49.078;12.878;2022-07-19T00:08:25;97075.25;;;19.31;42.75
44079;BME280;29744;49.078;12.878;2022-07-19T00:13:25;97071.38;;;19.32;42.32
44079;BME280;29744;49.078;12.878;2022-07-19T00:18:26;97078.44;;;19.33;42.21
44079;BME280;29744;49.078;12.878;2022-07-19T00:23:26;97073.81;;;19.33;42.64
44079;BME280;29744;49.078;12.878;2022-07-19T00:28:26;97069.94;;;19.34;42.51
44079;BME280;29744;49.078;12.878;2022-07-19T00:33:27;97064.50;;;19.34;42.49
44079;BME280;29744;49.078;12.878;2022-07-19T00:38:27;97062.59;;;19.35;42.36
44079;BME280;29744;49.078;12.878;2022-07-19T00:43:27;97057.16;;;19.35;42.41
44079;BME280;29744;49.078;12.878;2022-07-19T00:48:28;97063.03;;;19.37;42.40
44079;BME280;29744;49.078;12.878;2022-07-19T00:53:29;97065.75;;;19.37;42.27
44079;BME280;29744;49.078;12.878;2022-07-19T00:58:31;97063.03;;;19.37;42.10
44079;BME280;29744;49.078;12.878;2022-07-19T01:03:34;97062.25;;;19.36;41.95
44079;BME280;29744;49.078;12.878;2022-07-19T01:08:36;97059.53;;;19.36;42.40
44079;BME280;29744;49.078;12.878;2022-07-19T01:13:37;97058.72;;;19.36;42.23
44079;BME280;29744;49.078;12.878;2022-07-19T01:18:37;97061.44;;;19.36;42.37
44079;BME280;29744;49.078;12.878;2022-07-19T01:23:37;97060.66;;;19.35;42.28
44079;BME280;29744;49.078;12.878;2022-07-19T01:28:38;97063.38;;;19.35;42.10
44079;BME280;29744;49.078;12.878;2022-07-19T01:33:41;97057.94;;;19.35;42.44
44079;BME280;29744;49.078;12.878;2022-07-19T01:38:41;97066.88;;;19.36;42.21
44079;BME280;29744;49.078;12.878;2022-07-19T01:43:42;97066.88;;;19.36;41.98
44079;BME280;29744;49.078;12.878;2022-07-19T01:48:44;97068.03;;;19.35;42.32
44079;BME280;29744;49.078;12.878;2022-07-19T01:53:44;97066.09;;;19.35;42.23
44079;BME280;29744;49.078;12.878;2022-07-19T01:58:44;97068.81;;;19.35;42.63
44079;BME280;29744;49.078;12.878;2022-07-19T02:03:45;97071.53;;;19.35;42.24
44079;BME280;29744;49.078;12.878;2022-07-19T02:08:45;97069.59;;;19.36;42.05
44079;BME280;29744;49.078;12.878;2022-07-19T02:13:45;97070.75;;;19.35;41.90
44079;BME280;29744;49.078;12.878;2022-07-19T02:18:46;97057.16;;;19.35;42.31
44079;BME280;29744;49.078;12.878;2022-07-19T02:23:46;97067.69;;;19.36;42.21
44079;BME280;29744;49.078;12.878;2022-07-19T02:28:46;97065.31;;;19.35;42.17
44079;BME280;29744;49.078;12.878;2022-07-19T02:33:47;97057.94;;;19.35;41.94
44079;BME280;29744;49.078;12.878;2022-07-19T02:38:47;97059.88;;;19.35;42.12
44079;BME280;29744;49.078;12.878;2022-07-19T02:43:47;97061.78;;;19.34;42.19
44079;BME280;29744;49.078;12.878;2022-07-19T02:48:48;97064.16;;;19.36;42.53
44079;BME280;29744;49.078;12.878;2022-07-19T02:53:48;97064.50;;;19.34;42.57
44079;BME280;29744;49.078;12.878;2022-07-19T02:58:48;97071.88;;;19.34;42.19
44079;BME280;29744;49.078;12.878;2022-07-19T03:03:49;97065.63;;;19.33;42.18
44079;BME280;29744;49.078;12.878;2022-07-19T03:08:50;97067.22;;;19.34;42.25
44079;BME280;29744;49.078;12.878;2022-07-19T03:13:50;97070.28;;;19.33;42.29
44079;BME280;29744;49.078;12.878;2022-07-19T03:18:50;97057.78;;;19.32;42.28
44079;BME280;29744;49.078;12.878;2022-07-19T03:23:51;97059.41;;;19.33;42.21
44079;BME280;29744;49.078;12.878;2022-07-19T03:28:51;97065.94;;;19.32;42.26
44079;BME280;29744;49.078;12.878;2022-07-19T03:33:52;97073.00;;;19.33;42.26
44079;BME280;29744;49.078;12.878;2022-07-19T03:38:53;97065.94;;;19.32;42.20
44079;BME280;29744;49.078;12.878;2022-07-19T03:43:53;97065.16;;;19.31;42.11
44079;BME280;29744;49.078;12.878;2022-07-19T03:48:54;97070.59;;;19.31;42.15
44079;BME280;29744;49.078;12.878;2022-07-19T03:53:55;97075.25;;;19.31;41.96
44079;BME280;29744;49.078;12.878;2022-07-19T03:58:55;97078.75;;;19.31;42.14
44079;BME280;29744;49.078;12.878;2022-07-19T04:03:56;97073.31;;;19.31;42.20
44079;BME280;29744;49.078;12.878;2022-07-19T04:08:56;97080.38;;;19.32;42.43
44079;BME280;29744;49.078;12.878;2022-07-19T04:13:56;97076.81;;;19.32;42.06
44079;BME280;29744;49.078;12.878;2022-07-19T04:18:57;97082.25;;;19.32;42.46
44079;BME280;29744;49.078;12.878;2022-07-19T04:23:57;97081.16;;;19.33;41.91
44079;BME280;29744;49.078;12.878;2022-07-19T04:28:57;97083.09;;;19.32;42.24
44079;BME280;29744;49.078;12.878;2022-07-19T04:33:58;97081.16;;;19.33;41.98
44079;BME280;29744;49.078;12.878;2022-07-19T04:38:58;97074.09;;;19.32;42.04
44079;BME280;29744;49.078;12.878;2022-07-19T04:43:58;97080.69;;;19.31;42.09
44079;BME280;29744;49.078;12.878;2022-07-19T04:48:59;97082.25;;;19.32;42.21
44079;BME280;29744;49.078;12.878;2022-07-19T04:53:59;97079.56;;;19.32;42.33
44079;BME280;29744;49.078;12.878;2022-07-19T04:58:59;97076.81;;;19.32;42.37
44079;BME280;29744;49.078;12.878;2022-07-19T05:04:00;97071.38;;;19.32;42.01
44079;BME280;29744;49.078;12.878;2022-07-19T05:09:00;97075.72;;;19.33;42.31
44079;BME280;29744;49.078;12.878;2022-07-19T05:14:01;97074.59;;;19.34;42.48
44079;BME280;29744;49.078;12.878;2022-07-19T05:19:01;97059.06;;;19.34;42.17
44079;BME280;29744;49.078;12.878;2022-07-19T05:24:02;97070.75;;;19.35;42.20
44079;BME280;29744;49.078;12.878;2022-07-19T05:29:03;97073.91;;;19.37;42.56
44079;BME280;29744;49.078;12.878;2022-07-19T05:34:03;97069.28;;;19.37;41.95
44079;BME280;29744;49.078;12.878;2022-07-19T05:39:04;97070.84;;;19.38;42.29
44079;BME280;29744;49.078;12.878;2022-07-19T05:44:04;97082.53;;;19.39;42.16
44079;BME280;29744;49.078;12.878;2022-07-19T05:49:04;97069.72;;;19.39;42.28
44079;BME280;29744;49.078;12.878;2022-07-19T05:54:05;97060.44;;;19.40;42.06
44079;BME280;29744;49.078;12.878;2022-07-19T05:59:05;97061.22;;;19.41;42.13
44079;BME280;29744;49.078;12.878;2022-07-19T06:04:06;97069.38;;;19.41;42.16
44079;BME280;29744;49.078;12.878;2022-07-19T06:09:07;97069.03;;;19.42;42.33
44079;BME280;29744;49.078;12.878;2022-07-19T06:14:08;97067.13;;;19.43;42.08
44079;BME280;29744;49.078;12.878;2022-07-19T06:19:08;97064.41;;;19.43;42.26
44079;BME280;29744;49.078;12.878;2022-07-19T06:24:11;97062.47;;;19.43;42.18
44079;BME280;29744;49.078;12.878;2022-07-19T06:29:11;97063.25;;;19.44;42.45
44079;BME280;29744;49.078;12.878;2022-07-19T06:34:11;97057.81;;;19.44;41.90
44079;BME280;29744;49.078;12.878;2022-07-19T06:39:11;97058.63;;;19.44;42.08
44079;BME280;29744;49.078;12.878;2022-07-19T06:44:12;97061.34;;;19.44;41.87
44079;BME280;29744;49.078;12.878;2022-07-19T06:49:12;97059.41;;;19.45;42.31
44079;BME280;29744;49.078;12.878;2022-07-19T06:54:13;97052.84;;;19.46;42.00
44079;BME280;29744;49.078;12.878;2022-07-19T06:59:13;97046.59;;;19.45;41.92
44079;BME280;29744;49.078;12.878;2022-07-19T07:04:14;97042.75;;;19.46;41.93
44079;BME280;29744;49.078;12.878;2022-07-19T07:09:14;97039.22;;;19.46;42.12
44079;BME280;29744;49.078;12.878;2022-07-19T07:14:14;97036.50;;;19.46;42.07
44079;BME280;29744;49.078;12.878;2022-07-19T07:19:14;97040.81;;;19.47;42.48
44079;BME280;29744;49.078;12.878;2022-07-19T07:24:15;97037.31;;;19.46;41.98
44079;BME280;29744;49.078;12.878;2022-07-19T07:29:15;97026.09;;;19.48;42.10
44079;BME280;29744;49.078;12.878;2022-07-19T07:34:16;97026.09;;;19.48;41.98
44079;BME280;29744;49.078;12.878;2022-07-19T07:39:16;97026.09;;;19.48;42.09
44079;BME280;29744;49.078;12.878;2022-07-19T07:44:17;97026.09;;;19.48;41.91
44079;BME280;29744;49.078;12.878;2022-07-19T07:49:17;97022.56;;;19.47;42.45
44079;BME280;29744;49.078;12.878;2022-07-19T07:54:18;97016.34;;;19.47;42.37
44079;BME280;29744;49.078;12.878;2022-07-19T07:59:18;97016.34;;;19.47;42.07
44079;BME280;29744;49.078;12.878;2022-07-19T08:04:18;97017.13;;;19.47;41.91
44079;BME280;29744;49.078;12.878;2022-07-19T08:09:19;97017.94;;;19.48;41.81
44079;BME280;29744;49.078;12.878;2022-07-19T08:14:19;97005.47;;;19.47;41.85
44079;BME280;29744;49.078;12.878;2022-07-19T08:19:20;97000.00;;;19.47;42.16
44079;BME280;29744;49.078;12.878;2022-07-19T08:24:20;97002.75;;;19.47;41.93
44079;BME280;29744;49.078;12.878;2022-07-19T08:29:20;96993.44;;;19.48;42.11
44079;BME280;29744;49.078;12.878;2022-07-19T08:34:20;96980.97;;;19.47;42.13
44079;BME280;29744;49.078;12.878;2022-07-19T08:39:21;96979.03;;;19.47;42.04
44079;BME280;29744;49.078;12.878;2022-07-19T08:44:22;96974.75;;;19.46;42.12
44079;BME280;29744;49.078;12.878;2022-07-19T08:49:22;96973.59;;;19.47;41.78
44079;BME280;29744;49.078;12.878;2022-07-19T08:54:22;96968.16;;;19.47;42.11
44079;BME280;29744;49.078;12.878;2022-07-19T08:59:23;96968.16;;;19.47;42.09
44079;BME280;29744;49.078;12.878;2022-07-19T09:04:24;96966.25;;;19.48;42.26
44079;BME280;29744;49.078;12.878;2022-07-19T09:09:32;96965.91;;;19.49;42.09
44079;BME280;29744;49.078;12.878;2022-07-19T09:14:36;96967.47;;;19.50;42.30
44079;BME280;29744;49.078;12.878;2022-07-19T09:19:39;96962.03;;;19.50;42.08
44079;BME280;29744;49.078;12.878;2022-07-19T09:24:42;96960.13;;;19.51;41.88
44079;BME280;29744;49.078;12.878;2022-07-19T09:29:45;96965.56;;;19.51;42.04
44079;BME280;29744;49.078;12.878;2022-07-19T09:34:57;96959.31;;;19.50;42.14
44079;BME280;29744;49.078;12.878;2022-07-19T09:40:00;96961.69;;;19.52;42.10
44079;BME280;29744;49.078;12.878;2022-07-19T09:45:06;96948.09;;;19.52;42.45
44079;BME280;29744;49.078;12.878;2022-07-19T09:50:09;96948.88;;;19.52;41.96
44079;BME280;29744;49.078;12.878;2022-07-19T09:55:10;96946.16;;;19.52;42.08
44079;BME280;29744;49.078;12.878;2022-07-19T10:00:12;96943.91;;;19.54;41.95
44079;BME280;29744;49.078;12.878;2022-07-19T10:05:13;96943.09;;;19.54;42.12
44079;BME280;29744;49.078;12.878;2022-07-19T10:10:17;96931.09;;;19.55;41.82
44079;BME280;29744;49.078;12.878;2022-07-19T10:15:18;96933.00;;;19.54;41.84
44079;BME280;29744;49.078;12.878;2022-07-19T10:20:22;96927.56;;;19.54;42.28
44079;BME280;29744;49.078;12.878;2022-07-19T10:25:23;96913.19;;;19.54;42.09
44079;BME280;29744;49.078;12.878;2022-07-19T10:30:25;96912.03;;;19.55;42.09
44079;BME280;29744;49.078;12.878;2022-07-19T10:40:46;96906.50;;;19.51;42.18
44079;BME280;29744;49.078;12.878;2022-07-19T10:50:57;96906.16;;;19.53;42.35
44079;BME280;29744;49.078;12.878;2022-07-19T10:56:17;96915.44;;;19.52;42.03
44079;BME280;29744;49.078;12.878;2022-07-19T11:01:19;96901.50;;;19.53;42.22
44079;BME280;29744;49.078;12.878;2022-07-19T11:06:23;96899.59;;;19.54;42.17
44079;BME280;29744;49.078;12.878;2022-07-19T11:11:25;96897.66;;;19.54;41.97
44079;BME280;29744;49.078;12.878;2022-07-19T11:16:29;96885.97;;;19.54;42.03
44079;BME280;29744;49.078;12.878;2022-07-19T11:21:31;96884.84;;;19.55;42.07
44079;BME280;29744;49.078;12.878;2022-07-19T11:26:37;96886.44;;;19.56;42.37
44079;BME280;29744;49.078;12.878;2022-07-19T11:31:45;96869.31;;;19.55;41.70
44079;BME280;29744;49.078;12.878;2022-07-19T11:36:56;96869.31;;;19.55;41.95
44079;BME280;29744;49.078;12.878;2022-07-19T11:41:57;96873.63;;;19.56;41.69
44079;BME280;29744;49.078;12.878;2022-07-19T11:46:57;96865.09;;;19.58;42.11
44079;BME280;29744;49.078;12.878;2022-07-19T11:51:58;96861.59;;;19.57;42.21
44079;BME280;29744;49.078;12.878;2022-07-19T11:56:59;96856.94;;;19.58;42.29
44079;BME280;29744;49.078;12.878;2022-07-19T12:01:59;96846.84;;;19.58;42.18
44079;BME280;29744;49.078;12.878;2022-07-19T12:07:00;96849.56;;;19.58;42.25
44079;BME280;29744;49.078;12.878;2022-07-19T12:12:12;96849.91;;;19.57;42.30
44079;BME280;29744;49.078;12.878;2022-07-19T12:17:20;96849.56;;;19.58;42.02
44079;BME280;29744;49.078;12.878;2022-07-19T12:22:30;96846.06;;;19.58;42.30
44079;BME280;29744;49.078;12.878;2022-07-19T12:27:32;96846.84;;;19.58;41.69
44079;BME280;29744;49.078;12.878;2022-07-19T12:32:35;96843.78;;;19.60;42.33
44079;BME280;29744;49.078;12.878;2022-07-19T12:37:36;96841.06;;;19.60;42.60
44079;BME280;29744;49.078;12.878;2022-07-19T12:42:59;96830.19;;;19.60;42.37
44079;BME280;29744;49.078;12.878;2022-07-19T12:48:06;96830.19;;;19.60;42.45
44079;BME280;29744;49.078;12.878;2022-07-19T12:53:08;96828.25;;;19.61;42.51
44079;BME280;29744;49.078;12.878;2022-07-19T12:58:11;96829.84;;;19.62;42.06
44079;BME280;29744;49.078;12.878;2022-07-19T13:03:11;96820.53;;;19.63;42.09
44079;BME280;29744;49.078;12.878;2022-07-19T13:08:11;96817.81;;;19.63;41.89
44079;BME280;29744;49.078;12.878;2022-07-19T13:13:12;96816.22;;;19.62;41.81
44079;BME280;29744;49.078;12.878;2022-07-19T13:18:12;96813.16;;;19.63;42.08
44079;BME280;29744;49.078;12.878;2022-07-19T13:23:12;96793.31;;;19.63;41.74
44079;BME280;29744;49.078;12.878;2022-07-19T13:28:13;96805.00;;;19.63;42.14
44079;BME280;29744;49.078;12.878;2022-07-19T13:33:13;96801.16;;;19.64;42.13
44079;BME280;29744;49.078;12.878;2022-07-19T13:38:13;96797.63;;;19.64;41.82
44079;BME280;29744;49.078;12.878;2022-07-19T13:43:14;96791.06;;;19.65;42.42
44079;BME280;29744;49.078;12.878;2022-07-19T13:48:14;96787.97;;;19.66;41.81
44079;BME280;29744;49.078;12.878;2022-07-19T13:53:15;96787.97;;;19.66;42.19
44079;BME280;29744;49.078;12.878;2022-07-19T13:58:15;96767.34;;;19.65;42.13
44079;BME280;29744;49.078;12.878;2022-07-19T14:03:16;96767.00;;;19.67;41.69
44079;BME280;29744;49.078;12.878;2022-07-19T14:08:17;96770.53;;;19.67;42.02
44079;BME280;29744;49.078;12.878;2022-07-19T14:13:17;96764.28;;;19.67;42.20
44079;BME280;29744;49.078;12.878;2022-07-19T14:18:18;96757.72;;;19.68;42.13
44079;BME280;29744;49.078;12.878;2022-07-19T14:23:18;96750.34;;;19.68;42.28
44079;BME280;29744;49.078;12.878;2022-07-19T14:28:19;96752.25;;;19.68;42.00
44079;BME280;29744;49.078;12.878;2022-07-19T14:33:19;96742.16;;;19.68;42.06
44079;BME280;29744;49.078;12.878;2022-07-19T14:38:19;96742.16;;;19.68;42.29
44079;BME280;29744;49.078;12.878;2022-07-19T14:43:20;96734.78;;;19.69;41.79
44079;BME280;29744;49.078;12.878;2022-07-19T14:48:20;96737.53;;;19.69;41.96
44079;BME280;29744;49.078;12.878;2022-07-19T14:53:20;96730.94;;;19.70;42.33
44079;BME280;29744;49.078;12.878;2022-07-19T14:58:21;96730.16;;;19.69;41.96
44079;BME280;29744;49.078;12.878;2022-07-19T15:03:21;96727.06;;;19.71;41.96
44079;BME280;29744;49.078;12.878;2022-07-19T15:08:21;96724.34;;;19.71;41.79
44079;BME280;29744;49.078;12.878;2022-07-19T15:13:22;96712.69;;;19.70;42.01
44079;BME280;29744;49.078;12.878;2022-07-19T15:18:22;96715.41;;;19.70;42.26
44079;BME280;29744;49.078;12.878;2022-07-19T15:23:22;96715.84;;;19.72;42.03
44079;BME280;29744;49.078;12.878;2022-07-19T15:28:23;96706.88;;;19.72;42.06
44079;BME280;29744;49.078;12.878;2022-07-19T15:33:23;96704.16;;;19.72;42.08
44079;BME280;29744;49.078;12.878;2022-07-19T15:38:23;96706.88;;;19.72;42.05
44079;BME280;29744;49.078;12.878;2022-07-19T15:43:23;96701.88;;;19.74;42.12
44079;BME280;29744;49.078;12.878;2022-07-19T15:48:24;96701.88;;;19.74;41.86
44079;BME280;29744;49.078;12.878;2022-07-19T15:53:25;96697.22;;;19.74;41.96
44079;BME280;29744;49.078;12.878;2022-07-19T15:58:26;96691.78;;;19.74;41.86
44079;BME280;29744;49.078;12.878;2022-07-19T16:03:26;96680.13;;;19.74;41.93
44079;BME280;29744;49.078;12.878;2022-07-19T16:08:26;96682.50;;;19.75;42.10
44079;BME280;29744;49.078;12.878;2022-07-19T16:13:27;96681.69;;;19.75;42.00
44079;BME280;29744;49.078;12.878;2022-07-19T16:18:27;96677.03;;;19.75;42.00
44079;BME280;29744;49.078;12.878;2022-07-19T16:23:27;96667.31;;;19.74;42.25
44079;BME280;29744;49.078;12.878;2022-07-19T16:28:28;96664.22;;;19.76;41.99
44079;BME280;29744;49.078;12.878;2022-07-19T16:33:28;96668.53;;;19.77;41.83
44079;BME280;29744;49.078;12.878;2022-07-19T16:38:28;96670.47;;;19.76;42.02
44079;BME280;29744;49.078;12.878;2022-07-19T16:43:29;96668.53;;;19.77;41.99
44079;BME280;29744;49.078;12.878;2022-07-19T16:48:29;96668.53;;;19.77;41.85
44079;BME280;29744;49.078;12.878;2022-07-19T16:53:29;96669.31;;;19.77;42.27
44079;BME280;29744;49.078;12.878;2022-07-19T16:58:30;96670.91;;;19.78;41.79
44079;BME280;29744;49.078;12.878;2022-07-19T17:03:30;96665.47;;;19.78;42.19
44079;BME280;29744;49.078;12.878;2022-07-19T17:08:32;96665.91;;;19.80;41.95
44079;BME280;29744;49.078;12.878;2022-07-19T17:13:32;96662.38;;;19.80;42.03
44079;BME280;29744;49.078;12.878;2022-07-19T17:18:33;96667.81;;;19.80;42.07
44079;BME280;29744;49.078;12.878;2022-07-19T17:23:33;96672.13;;;19.81;41.97
44079;BME280;29744;49.078;12.878;2022-07-19T17:28:34;96671.69;;;19.79;41.97
44079;BME280;29744;49.078;12.878;2022-07-19T17:33:34;96679.50;;;19.80;41.94
44079;BME280;29744;49.078;12.878;2022-07-19T17:38:34;96671.34;;;19.80;42.02
44079;BME280;29744;49.078;12.878;2022-07-19T17:43:36;96686.53;;;19.81;41.65
44079;BME280;29744;49.078;12.878;2022-07-19T17:48:36;96674.84;;;19.81;41.93
44079;BME280;29744;49.078;12.878;2022-07-19T17:53:36;96683.00;;;19.81;42.22
44079;BME280;29744;49.078;12.878;2022-07-19T17:58:36;96683.00;;;19.81;42.12
44079;BME280;29744;49.078;12.878;2022-07-19T18:03:40;96682.56;;;19.79;42.04
44079;BME280;29744;49.078;12.878;2022-07-19T18:08:40;96687.31;;;19.82;42.20
44079;BME280;29744;49.078;12.878;2022-07-19T18:13:40;96686.53;;;19.81;42.17
44079;BME280;29744;49.078;12.878;2022-07-19T18:18:41;96675.63;;;19.81;41.75
44079;BME280;29744;49.078;12.878;2022-07-19T18:23:41;96681.09;;;19.81;42.13
44079;BME280;29744;49.078;12.878;2022-07-19T18:28:41;96676.44;;;19.82;41.93
44079;BME280;29744;49.078;12.878;2022-07-19T18:33:42;96666.69;;;19.81;42.01
44079;BME280;29744;49.078;12.878;2022-07-19T18:38:42;96675.63;;;19.81;42.08
44079;BME280;29744;49.078;12.878;2022-07-19T18:43:43;96679.16;;;19.82;42.27
44079;BME280;29744;49.078;12.878;2022-07-19T18:48:43;96675.63;;;19.81;41.96
44079;BME280;29744;49.078;12.878;2022-07-19T18:53:44;96678.34;;;19.81;41.97
44079;BME280;29744;49.078;12.878;2022-07-19T18:58:44;96674.84;;;19.81;42.14
44079;BME280;29744;49.078;12.878;2022-07-19T19:03:45;96677.56;;;19.81;42.11
44079;BME280;29744;49.078;12.878;2022-07-19T19:08:45;96685.38;;;19.82;41.96
44079;BME280;29744;49.078;12.878;2022-07-19T19:13:45;96681.09;;;19.81;42.00
44079;BME280;29744;49.078;12.878;2022-07-19T19:18:46;96691.97;;;19.81;42.00
44079;BME280;29744;49.078;12.878;2022-07-19T19:23:46;96691.97;;;19.81;41.88
44079;BME280;29744;49.078;12.878;2022-07-19T19:28:47;96695.81;;;19.80;42.21
44079;BME280;29744;49.078;12.878;2022-07-19T19:33:47;96698.56;;;19.80;42.16
44079;BME280;29744;49.078;12.878;2022-07-19T19:38:47;96702.06;;;19.81;42.44
44079;BME280;29744;49.078;12.878;2022-07-19T19:43:48;96711.38;;;19.80;41.97
44079;BME280;29744;49.078;12.878;2022-07-19T19:48:48;96711.00;;;19.81;41.90
44079;BME280;29744;49.078;12.878;2022-07-19T19:53:48;96712.16;;;19.80;42.15
44079;BME280;29744;49.078;12.878;2022-07-19T19:58:49;96715.22;;;19.79;42.48
44079;BME280;29744;49.078;12.878;2022-07-19T20:03:49;96714.44;;;19.78;41.79
44079;BME280;29744;49.078;12.878;2022-07-19T20:08:49;96709.78;;;19.79;42.07
44079;BME280;29744;49.078;12.878;2022-07-19T20:13:49;96715.22;;;19.79;41.85
44079;BME280;29744;49.078;12.878;2022-07-19T20:18:50;96719.88;;;19.78;42.16
44079;BME280;29744;49.078;12.878;2022-07-19T20:23:51;96718.75;;;19.79;41.91
44079;BME280;29744;49.078;12.878;2022-07-19T20:28:51;96721.47;;;19.79;41.80
44079;BME280;29744;49.078;12.878;2022-07-19T20:33:52;96719.88;;;19.78;41.82
44079;BME280;29744;49.078;12.878;2022-07-19T20:38:52;96718.75;;;19.79;41.97
44079;BME280;29744;49.078;12.878;2022-07-19T20:43:53;96719.09;;;19.78;41.96
44079;BME280;29744;49.078;12.878;2022-07-19T20:48:53;96719.88;;;19.78;42.15
44079;BME280;29744;49.078;12.878;2022-07-19T20:53:54;96730.41;;;19.80;41.90
44079;BME280;29744;49.078;12.878;2022-07-19T20:58:55;96729.63;;;19.79;41.90
44079;BME280;29744;49.078;12.878;2022-07-19T21:03:56;96726.91;;;19.79;42.10
44079;BME280;29744;49.078;12.878;2022-07-19T21:08:56;96732.34;;;19.79;42.45
44079;BME280;29744;49.078;12.878;2022-07-19T21:13:56;96739.38;;;19.80;42.02
44079;BME280;29744;49.078;12.878;2022-07-19T21:18:57;96738.59;;;19.80;42.10
44079;BME280;29744;49.078;12.878;2022-07-19T21:23:57;96733.94;;;19.80;42.31
44079;BME280;29744;49.078;12.878;2022-07-19T21:28:58;96733.13;;;19.80;41.93
44079;BME280;29744;49.078;12.878;2022-07-19T21:33:59;96737.44;;;19.81;42.26
44079;BME280;29744;49.078;12.878;2022-07-19T21:39:06;96739.38;;;19.80;42.22
44079;BME280;29744;49.078;12.878;2022-07-19T21:44:08;96736.22;;;19.78;41.84
44079;BME280;29744;49.078;12.878;2022-07-19T21:49:09;96733.94;;;19.80;42.12
44079;BME280;29744;49.078;12.878;2022-07-19T21:54:09;96740.16;;;19.81;42.22
44079;BME280;29744;49.078;12.878;2022-07-19T21:59:09;96747.53;;;19.80;41.76
44079;BME280;29744;49.078;12.878;2022-07-19T22:04:10;96747.53;;;19.80;42.12
44079;BME280;29744;49.078;12.878;2022-07-19T22:09:10;96751.84;;;19.81;42.29
44079;BME280;29744;49.078;12.878;2022-07-19T22:14:13;96752.97;;;19.80;42.03
44079;BME280;29744;49.078;12.878;2022-07-19T22:19:13;96751.03;;;19.81;42.15
44079;BME280;29744;49.078;12.878;2022-07-19T22:24:14;96749.13;;;19.81;42.18
44079;BME280;29744;49.078;12.878;2022-07-19T22:29:14;96751.84;;;19.81;42.32
44079;BME280;29744;49.078;12.878;2022-07-19T22:34:14;96755.34;;;19.82;42.06
44079;BME280;29744;49.078;12.878;2022-07-19T22:39:15;96754.56;;;19.81;42.05
44079;BME280;29744;49.078;12.878;2022-07-19T22:44:15;96751.84;;;19.81;41.97
44079;BME280;29744;49.078;12.878;2022-07-19T22:49:15;96757.28;;;19.81;42.12
44079;BME280;29744;49.078;12.878;2022-07-19T22:54:16;96759.22;;;19.81;42.43
44079;BME280;29744;49.078;12.878;2022-07-19T22:59:16;96764.66;;;19.81;42.22
44079;BME280;29744;49.078;12.878;2022-07-19T23:04:17;96760.34;;;19.80;42.57
44079;BME280;29744;49.078;12.878;2022-07-19T23:09:17;96759.56;;;19.79;42.63
44079;BME280;29744;49.078;12.878;2022-07-19T23:14:17;96753.31;;;19.79;42.36
44079;BME280;29744;49.078;12.878;2022-07-19T23:19:18;96751.41;;;19.79;42.34
44079;BME280;29744;49.078;12.878;2022-07-19T23:24:18;96740.50;;;19.79;42.64
44079;BME280;29744;49.078;12.878;2022-07-19T23:29:19;96738.94;;;19.78;42.34
44079;BME280;29744;49.078;12.878;2022-07-19T23:34:19;96733.50;;;19.78;42.21
44079;BME280;29744;49.078;12.878;2022-07-19T23:39:19;96734.28;;;19.79;42.31
44079;BME280;29744;49.078;12.878;2022-07-19T23:44:20;96741.66;;;19.78;41.95
44079;BME280;29744;49.078;12.878;2022-07-19T23:49:20;96745.50;;;19.77;42.28
44079;BME280;29744;49.078;12.878;2022-07-19T23:54:22;96734.63;;;19.77;42.56
44079;BME280;29744;49.078;12.878;2022-07-19T23:59:23;96752.53;;;19.78;42.45
